sensor_id;sensor_type;location;lat;lon;timestamp;P1;durP1;ratioP1;P2;durP2;ratioP2
4527;SDS011;62320;51.520;6.818;2023-04-16T00:09:49;18.13;;;6.43;;
4527;SDS011;62320;51.520;6.818;2023-04-16T00:19:51;15.93;;;6.30;;
4527;SDS011;62320;51.520;6.818;2023-04-16T00:29:52;12.85;;;5.40;;
4527;SDS011;62320;51.520;6.818;2023-04-16T00:39:54;16.57;;;6.80;;
4527;SDS011;62320;51.520;6.818;2023-04-16T00:49:55;13.77;;;5.27;;
4527;SDS011;62320;51.520;6.818;2023-04-16T00:59:56;23.55;;;7.00;;
4527;SDS011;62320;51.520;6.818;2023-04-16T01:09:58;16.37;;;6.23;;
4527;SDS011;62320;51.520;6.818;2023-04-16T01:20:00;15.27;;;5.50;;
4527;SDS011;62320;51.520;6.818;2023-04-16T01:30:01;16.80;;;6.75;;
4527;SDS011;62320;51.520;6.818;2023-04-16T01:40:03;21.20;;;7.93;;
4527;SDS011;62320;51.520;6.818;2023-04-16T01:50:05;20.40;;;7.90;;
4527;SDS011;62320;51.520;6.818;2023-04-16T02:00:07;25.93;;;9.10;;
4527;SDS011;62320;51.520;6.818;2023-04-16T02:10:09;14.88;;;7.10;;
4527;SDS011;62320;51.520;6.818;2023-04-16T02:20:11;21.73;;;8.80;;
4527;SDS011;62320;51.520;6.818;2023-04-16T02:30:12;23.57;;;8.63;;
4527;SDS011;62320;51.520;6.818;2023-04-16T02:40:14;25.60;;;8.55;;
4527;SDS011;62320;51.520;6.818;2023-04-16T02:50:15;22.80;;;8.77;;
4527;SDS011;62320;51.520;6.818;2023-04-16T03:00:17;22.60;;;8.57;;
4527;SDS011;62320;51.520;6.818;2023-04-16T03:10:19;15.10;;;6.93;;
4527;SDS011;62320;51.520;6.818;2023-04-16T03:20:20;24.73;;;9.20;;
4527;SDS011;62320;51.520;6.818;2023-04-16T03:30:22;26.27;;;8.97;;
4527;SDS011;62320;51.520;6.818;2023-04-16T03:40:23;24.77;;;9.77;;
4527;SDS011;62320;51.520;6.818;2023-04-16T03:50:25;24.65;;;9.40;;
4527;SDS011;62320;51.520;6.818;2023-04-16T04:00:26;27.17;;;9.67;;
4527;SDS011;62320;51.520;6.818;2023-04-16T04:10:30;23.47;;;9.23;;
4527;SDS011;62320;51.520;6.818;2023-04-16T04:20:32;37.45;;;12.20;;
4527;SDS011;62320;51.520;6.818;2023-04-16T04:30:33;26.07;;;10.07;;
4527;SDS011;62320;51.520;6.818;2023-04-16T04:40:36;34.73;;;12.97;;
4527;SDS011;62320;51.520;6.818;2023-04-16T04:50:37;33.33;;;12.48;;
4527;SDS011;62320;51.520;6.818;2023-04-16T05:00:39;35.40;;;13.15;;
4527;SDS011;62320;51.520;6.818;2023-04-16T05:10:40;33.53;;;11.87;;
4527;SDS011;62320;51.520;6.818;2023-04-16T05:20:42;37.63;;;13.77;;
4527;SDS011;62320;51.520;6.818;2023-04-16T05:30:43;33.13;;;12.15;;
4527;SDS011;62320;51.520;6.818;2023-04-16T05:40:45;28.27;;;11.60;;
4527;SDS011;62320;51.520;6.818;2023-04-16T05:50:46;31.97;;;11.43;;
4527;SDS011;62320;51.520;6.818;2023-04-16T06:00:49;30.15;;;11.82;;
4527;SDS011;62320;51.520;6.818;2023-04-16T06:10:50;28.93;;;12.00;;
4527;SDS011;62320;51.520;6.818;2023-04-16T06:20:52;33.90;;;12.80;;
4527;SDS011;62320;51.520;6.818;2023-04-16T06:30:54;28.83;;;13.18;;
4527;SDS011;62320;51.520;6.818;2023-04-16T06:40:56;31.58;;;12.10;;
4527;SDS011;62320;51.520;6.818;2023-04-16T06:50:59;32.87;;;13.90;;
4527;SDS011;62320;51.520;6.818;2023-04-16T07:01:00;33.30;;;13.30;;
4527;SDS011;62320;51.520;6.818;2023-04-16T07:11:02;32.35;;;12.82;;
4527;SDS011;62320;51.520;6.818;2023-04-16T07:21:04;35.27;;;14.20;;
4527;SDS011;62320;51.520;6.818;2023-04-16T07:31:06;31.33;;;12.33;;
4527;SDS011;62320;51.520;6.818;2023-04-16T07:41:08;28.63;;;12.82;;
4527;SDS011;62320;51.520;6.818;2023-04-16T07:51:09;33.83;;;14.13;;
4527;SDS011;62320;51.520;6.818;2023-04-16T08:01:11;30.47;;;13.70;;
4527;SDS011;62320;51.520;6.818;2023-04-16T08:11:12;29.92;;;14.15;;
4527;SDS011;62320;51.520;6.818;2023-04-16T08:21:14;33.78;;;14.68;;
4527;SDS011;62320;51.520;6.818;2023-04-16T08:31:15;30.13;;;12.73;;
4527;SDS011;62320;51.520;6.818;2023-04-16T08:41:17;28.63;;;12.57;;
4527;SDS011;62320;51.520;6.818;2023-04-16T08:51:21;28.67;;;13.85;;
4527;SDS011;62320;51.520;6.818;2023-04-16T09:01:24;28.80;;;13.90;;
4527;SDS011;62320;51.520;6.818;2023-04-16T09:11:26;25.40;;;12.47;;
4527;SDS011;62320;51.520;6.818;2023-04-16T09:21:28;31.02;;;14.60;;
4527;SDS011;62320;51.520;6.818;2023-04-16T09:31:30;25.30;;;12.50;;
4527;SDS011;62320;51.520;6.818;2023-04-16T09:41:32;23.90;;;12.10;;
4527;SDS011;62320;51.520;6.818;2023-04-16T09:51:40;18.77;;;9.32;;
4527;SDS011;62320;51.520;6.818;2023-04-16T10:01:42;23.00;;;11.50;;
4527;SDS011;62320;51.520;6.818;2023-04-16T10:11:43;22.60;;;10.77;;
4527;SDS011;62320;51.520;6.818;2023-04-16T10:21:46;23.70;;;11.33;;
4527;SDS011;62320;51.520;6.818;2023-04-16T10:31:48;21.90;;;10.40;;
4527;SDS011;62320;51.520;6.818;2023-04-16T10:41:50;24.10;;;11.23;;
4527;SDS011;62320;51.520;6.818;2023-04-16T10:52:11;16.37;;;8.13;;
4527;SDS011;62320;51.520;6.818;2023-04-16T11:02:17;17.30;;;8.88;;
4527;SDS011;62320;51.520;6.818;2023-04-16T11:12:23;18.27;;;8.93;;
4527;SDS011;62320;51.520;6.818;2023-04-16T11:22:27;17.83;;;9.17;;
4527;SDS011;62320;51.520;6.818;2023-04-16T11:32:32;20.70;;;10.90;;
4527;SDS011;62320;51.520;6.818;2023-04-16T11:42:35;17.45;;;8.32;;
4527;SDS011;62320;51.520;6.818;2023-04-16T11:52:37;19.07;;;9.33;;
4527;SDS011;62320;51.520;6.818;2023-04-16T12:12:44;22.25;;;12.02;;
4527;SDS011;62320;51.520;6.818;2023-04-16T12:22:47;21.47;;;11.43;;
4527;SDS011;62320;51.520;6.818;2023-04-16T12:32:51;18.13;;;9.13;;
4527;SDS011;62320;51.520;6.818;2023-04-16T12:42:56;23.10;;;12.25;;
4527;SDS011;62320;51.520;6.818;2023-04-16T12:52:58;19.53;;;10.77;;
4527;SDS011;62320;51.520;6.818;2023-04-16T13:02:59;22.20;;;11.13;;
4527;SDS011;62320;51.520;6.818;2023-04-16T13:13:01;19.10;;;9.85;;
4527;SDS011;62320;51.520;6.818;2023-04-16T13:23:02;17.20;;;8.95;;
4527;SDS011;62320;51.520;6.818;2023-04-16T13:33:07;24.20;;;12.87;;
4527;SDS011;62320;51.520;6.818;2023-04-16T13:43:09;15.63;;;9.13;;
4527;SDS011;62320;51.520;6.818;2023-04-16T13:53:11;16.65;;;9.13;;
4527;SDS011;62320;51.520;6.818;2023-04-16T14:03:12;17.77;;;9.87;;
4527;SDS011;62320;51.520;6.818;2023-04-16T14:13:14;19.67;;;10.70;;
4527;SDS011;62320;51.520;6.818;2023-04-16T14:23:16;19.52;;;10.50;;
4527;SDS011;62320;51.520;6.818;2023-04-16T14:33:17;15.30;;;8.17;;
4527;SDS011;62320;51.520;6.818;2023-04-16T14:43:18;16.77;;;8.60;;
4527;SDS011;62320;51.520;6.818;2023-04-16T14:53:21;18.00;;;9.40;;
4527;SDS011;62320;51.520;6.818;2023-04-16T15:03:23;18.35;;;9.98;;
4527;SDS011;62320;51.520;6.818;2023-04-16T15:13:25;16.67;;;9.30;;
4527;SDS011;62320;51.520;6.818;2023-04-16T15:23:33;15.50;;;8.23;;
4527;SDS011;62320;51.520;6.818;2023-04-16T15:33:35;16.75;;;9.18;;
4527;SDS011;62320;51.520;6.818;2023-04-16T15:43:37;17.67;;;9.00;;
4527;SDS011;62320;51.520;6.818;2023-04-16T15:53:38;18.20;;;10.33;;
4527;SDS011;62320;51.520;6.818;2023-04-16T16:03:40;17.38;;;9.43;;
4527;SDS011;62320;51.520;6.818;2023-04-16T16:13:42;28.73;;;11.47;;
4527;SDS011;62320;51.520;6.818;2023-04-16T16:23:43;24.63;;;12.07;;
4527;SDS011;62320;51.520;6.818;2023-04-16T16:33:45;21.98;;;10.23;;
4527;SDS011;62320;51.520;6.818;2023-04-16T16:43:46;26.38;;;12.70;;
4527;SDS011;62320;51.520;6.818;2023-04-16T16:53:48;29.13;;;13.23;;
4527;SDS011;62320;51.520;6.818;2023-04-16T17:03:49;29.50;;;13.07;;
4527;SDS011;62320;51.520;6.818;2023-04-16T17:13:51;30.58;;;14.05;;
4527;SDS011;62320;51.520;6.818;2023-04-16T17:23:53;29.20;;;13.63;;
4527;SDS011;62320;51.520;6.818;2023-04-16T17:33:55;29.23;;;13.27;;
4527;SDS011;62320;51.520;6.818;2023-04-16T17:43:56;28.33;;;13.85;;
4527;SDS011;62320;51.520;6.818;2023-04-16T17:53:57;26.20;;;12.70;;
4527;SDS011;62320;51.520;6.818;2023-04-16T18:03:59;24.93;;;11.43;;
4527;SDS011;62320;51.520;6.818;2023-04-16T18:14:00;25.88;;;12.20;;
4527;SDS011;62320;51.520;6.818;2023-04-16T18:24:02;23.77;;;11.27;;
4527;SDS011;62320;51.520;6.818;2023-04-16T18:34:04;22.57;;;11.33;;
4527;SDS011;62320;51.520;6.818;2023-04-16T18:44:05;27.37;;;12.00;;
4527;SDS011;62320;51.520;6.818;2023-04-16T18:54:09;24.58;;;12.15;;
4527;SDS011;62320;51.520;6.818;2023-04-16T19:04:11;25.57;;;12.17;;
4527;SDS011;62320;51.520;6.818;2023-04-16T19:14:12;23.97;;;10.57;;
4527;SDS011;62320;51.520;6.818;2023-04-16T19:24:14;22.90;;;10.52;;
4527;SDS011;62320;51.520;6.818;2023-04-16T19:34:15;22.93;;;10.90;;
4527;SDS011;62320;51.520;6.818;2023-04-16T19:44:17;23.60;;;10.70;;
4527;SDS011;62320;51.520;6.818;2023-04-16T19:54:19;22.48;;;10.98;;
4527;SDS011;62320;51.520;6.818;2023-04-16T20:04:20;20.42;;;9.82;;
4527;SDS011;62320;51.520;6.818;2023-04-16T20:14:22;28.00;;;10.90;;
4527;SDS011;62320;51.520;6.818;2023-04-16T20:24:24;24.03;;;10.00;;
4527;SDS011;62320;51.520;6.818;2023-04-16T20:34:26;22.20;;;11.57;;
4527;SDS011;62320;51.520;6.818;2023-04-16T20:44:29;24.70;;;13.30;;
4527;SDS011;62320;51.520;6.818;2023-04-16T20:54:33;24.73;;;12.20;;
4527;SDS011;62320;51.520;6.818;2023-04-16T21:04:35;18.85;;;9.95;;
4527;SDS011;62320;51.520;6.818;2023-04-16T21:14:36;27.33;;;12.03;;
4527;SDS011;62320;51.520;6.818;2023-04-16T21:24:38;26.27;;;13.33;;
4527;SDS011;62320;51.520;6.818;2023-04-16T21:34:39;32.88;;;15.60;;
4527;SDS011;62320;51.520;6.818;2023-04-16T21:44:41;33.83;;;15.35;;
4527;SDS011;62320;51.520;6.818;2023-04-16T21:54:43;35.20;;;15.30;;
4527;SDS011;62320;51.520;6.818;2023-04-16T22:04:45;35.67;;;15.77;;
4527;SDS011;62320;51.520;6.818;2023-04-16T22:14:47;35.03;;;16.15;;
4527;SDS011;62320;51.520;6.818;2023-04-16T22:25:01;41.10;;;16.87;;
4527;SDS011;62320;51.520;6.818;2023-04-16T22:35:03;35.20;;;16.20;;
4527;SDS011;62320;51.520;6.818;2023-04-16T22:45:05;35.33;;;14.85;;
4527;SDS011;62320;51.520;6.818;2023-04-16T22:55:07;34.80;;;15.13;;
4527;SDS011;62320;51.520;6.818;2023-04-16T23:05:09;34.43;;;15.63;;
4527;SDS011;62320;51.520;6.818;2023-04-16T23:15:11;42.63;;;18.75;;
4527;SDS011;62320;51.520;6.818;2023-04-16T23:25:13;27.30;;;12.23;;
4527;SDS011;62320;51.520;6.818;2023-04-16T23:35:14;33.90;;;17.50;;
4527;SDS011;62320;51.520;6.818;2023-04-16T23:45:22;37.63;;;18.03;;
4527;SDS011;62320;51.520;6.818;2023-04-16T23:55:24;38.58;;;16.38;;
